KTIK/TIK METAR and TAF weather

Enter ICAO airport designator
Station Type Date Time Source
KTIK METAR 2020/09/21 04:56 UTC NOAA

KTIK 210456Z AUTO 11003KT 10SM CLR 17/15 A3019 RMK AO2 SLP223 T01660148


Station Type Date Time Source
KTIK Decoded METAR 2020/09/21 04:56 UTC NOAA

Tinker Air Force Base, OK, United States (KTIK) 35-25N 097-23W 397M
Sep 21, 2020 - 12:56 AM EDT / 2020.09.21 0456 UTC
Wind: from the ESE (110 degrees) at 3 MPH (3 KT):0
Visibility: 10 mile(s):0
Sky conditions: clear
Temperature: 61.9 F (16.6 C)
Dew Point: 58.6 F (14.8 C)
Relative Humidity: 89%
Pressure (altimeter): 30.19 in. Hg (1022 hPa)
ob: KTIK 210456Z AUTO 11003KT 10SM CLR 17/15 A3019 RMK AO2 SLP223 T01660148
cycle: 5

Station Type Date Time Source
KTIK TAF 2020/09/21 01:47 UTC NOAA

TAF KTIK 210100Z 2101/2207 VRB06KT 9999 FEW022 QNH3008INS
BECMG 2205/2206 VRB06KT 9999 SCT014 QNH3012INS TX25/2120Z TN15/2111Z

Example: see airport list